St. Athan Airport

About
Name: St. Athan Airport
Identifier:  DGX/EGDX
Local Time:  22. Jul 23:21 BST
Location
Flights per Day
0 flights
Distance: 48km (30mi)
Punctuality
0% (0 flights per day delayed)
Delay Average: 30 minutes
Current Weather
 6 C (Humidity: 75%)
  8kt (14km/h / 9mph) from 70°
  9km (6 mi.)
 NC
 METAR EGDX 312350Z AUTO 07008KT 9999 NCD 06/02 Q1024

Current Flights

Departures
Number Departure To Airline
Arrivals
Number Arrival From Airline

Current Delays

Departures
N/A
Arrivals
N/A

Destinations

Top Destinations
Airport Flights
per week
Seats
per week
  Swansea (SWS) 0 - 0 0

Airlines & Planes

Top Airlines
Airline Flights
per Day
Seats
per Day
  Bristow Helicopters Group 0 -
Top Plane Types
Model Flights Seats